Time;durP1;ratioP1;P1;durP2;ratioP2;P2;SDS_P1;SDS_P2;PMS_P1;PMS_P2;Temp;Humidity;BMP_temperature;BMP_pressure;BME280_temperature;BME280_humidity;BME280_pressure;Samples;Min_cycle;Max_cycle;Signal;HPM_P1;HPM_P2
2022/03/15 00:00:40;;;;;;;51.28;24.63;;;;;;;-1.85;69.38;101051.34;1727276;82;21075;-71
2022/03/15 00:03:08;;;;;;;51.23;24.00;;;;;;;-1.89;69.42;101044.66;1728657;82;21576;-67
2022/03/15 00:05:34;;;;;;;58.08;25.20;;;;;;;-1.93;69.46;101036.65;1738080;82;20969;-68
2022/03/15 00:08:05;;;;;;;53.73;24.63;;;;;;;-1.96;69.52;101033.30;1669895;83;20993;-70
2022/03/15 00:10:34;;;;;;;53.70;25.48;;;;;;;-1.98;69.54;101033.20;1736464;81;21032;-70
2022/03/15 00:13:01;;;;;;;54.58;24.75;;;;;;;-2.01;69.60;101028.17;1738172;81;21061;-70
2022/03/15 00:15:35;;;;;;;58.87;24.92;;;;;;;-2.03;69.82;101033.77;1692101;83;21595;-68
2022/03/15 00:18:06;;;;;;;53.83;22.62;;;;;;;-2.07;69.95;101031.17;1689117;83;20973;-70
2022/03/15 00:20:35;;;;;;;53.15;24.72;;;;;;;-2.11;69.96;101027.19;1690113;83;20958;-71
2022/03/15 00:23:02;;;;;;;51.63;24.23;;;;;;;-2.14;70.08;101023.03;1722919;82;20956;-68
2022/03/15 00:25:31;;;;;;;51.33;25.50;;;;;;;-2.16;70.19;101024.23;1727283;82;20996;-70
2022/03/15 00:27:59;;;;;;;54.70;26.23;;;;;;;-2.17;70.31;101025.28;1739375;81;21066;-70
2022/03/15 00:30:26;;;;;;;57.53;27.62;;;;;;;-2.20;70.44;101027.84;1738746;81;21186;-71
2022/03/15 00:32:57;;;;;;;55.25;26.35;;;;;;;-2.22;70.65;101019.13;1737625;81;21063;-69
2022/03/15 00:35:25;;;;;;;66.95;27.27;;;;;;;-2.23;70.60;101018.29;1738078;81;21513;-70
2022/03/15 00:37:55;;;;;;;61.90;26.85;;;;;;;-2.24;70.52;101017.98;1702719;83;20890;-70
2022/03/15 00:40:25;;;;;;;75.10;27.80;;;;;;;-2.27;70.53;101011.59;1708063;82;21404;-68
2022/03/15 00:42:54;;;;;;;68.83;28.00;;;;;;;-2.28;70.53;101015.85;1726088;82;21004;-70
2022/03/15 00:45:28;;;;;;;67.78;27.30;;;;;;;-2.29;70.50;101015.55;1704510;82;21619;-69
2022/03/15 00:47:56;;;;;;;77.80;30.65;;;;;;;-2.33;70.56;101013.75;1740430;81;22054;-67
2022/03/15 00:50:28;;;;;;;75.65;32.13;;;;;;;-2.33;70.72;101015.10;1738627;81;21403;-70
2022/03/15 00:52:53;;;;;;;77.00;30.77;;;;;;;-2.33;70.77;101012.40;1744545;81;20989;-71
2022/03/15 00:55:24;;;;;;;58.78;27.98;;;;;;;-2.32;70.85;101009.50;1719459;82;20989;-70
2022/03/15 00:57:51;;;;;;;70.20;27.77;;;;;;;-2.30;70.96;101012.53;1738912;81;21543;-71
2022/03/15 01:00:20;;;;;;;72.27;28.32;;;;;;;-2.30;71.16;101011.19;1741915;81;21117;-70
2022/03/15 01:02:49;;;;;;;55.75;26.05;;;;;;;-2.30;71.30;101009.30;1710481;83;21476;-67
2022/03/15 01:05:16;;;;;;;60.92;26.62;;;;;;;-2.29;71.36;101010.98;1696216;83;22550;-70
2022/03/15 01:07:43;;;;;;;61.45;26.05;;;;;;;-2.27;71.35;101004.03;1739157;82;21087;-67
2022/03/15 01:10:11;;;;;;;66.62;27.07;;;;;;;-2.25;71.35;101008.73;1736639;81;20993;-70
2022/03/15 01:12:40;;;;;;;63.40;26.27;;;;;;;-2.22;71.45;101008.33;1691582;83;21059;-72
2022/03/15 01:15:08;;;;;;;62.85;26.50;;;;;;;-2.20;71.46;101003.54;1687300;83;21414;-71
2022/03/15 01:17:37;;;;;;;60.67;25.77;;;;;;;-2.23;71.16;100999.89;1704131;83;21075;-68
2022/03/15 01:20:08;;;;;;;57.25;25.92;;;;;;;-2.26;71.04;101001.13;1670000;84;21116;-71
2022/03/15 01:22:37;;;;;;;67.15;25.08;;;;;;;-2.30;71.07;101002.55;1669903;83;21240;-69
2022/03/15 01:25:08;;;;;;;56.58;24.07;;;;;;;-2.34;71.17;101004.80;1691058;83;21101;-70
2022/03/15 01:27:38;;;;;;;55.33;24.35;;;;;;;-2.35;71.29;101011.25;1692948;83;21059;-71
2022/03/15 01:30:07;;;;;;;46.13;23.30;;;;;;;-2.35;71.50;101008.55;1689742;83;21425;-72
2022/03/15 01:32:36;;;;;;;53.38;23.57;;;;;;;-2.32;71.65;101001.94;1697773;83;20950;-71
2022/03/15 01:35:05;;;;;;;53.08;22.07;;;;;;;-2.28;71.67;100997.79;1697977;83;21009;-71
2022/03/15 01:37:36;;;;;;;48.98;22.55;;;;;;;-2.24;71.77;101003.13;1707172;83;21301;-71
2022/03/15 01:40:08;;;;;;;46.18;21.30;;;;;;;-2.18;71.91;100999.31;1691556;83;21107;-69
2022/03/15 01:42:40;;;;;;;52.60;21.10;;;;;;;-2.13;71.97;100998.20;1676901;84;20939;-71
2022/03/15 01:45:07;;;;;;;43.48;20.30;;;;;;;-2.09;71.98;100998.11;1703160;83;21612;-70
2022/03/15 01:47:39;;;;;;;48.58;20.08;;;;;;;-2.04;71.90;100997.00;1696268;83;21096;-70
2022/03/15 01:50:07;;;;;;;36.80;18.35;;;;;;;-1.98;71.90;100997.53;1705592;83;21880;-69
2022/03/15 01:52:35;;;;;;;41.63;18.98;;;;;;;-1.93;71.82;100993.41;1679903;83;21440;-68
2022/03/15 01:55:05;;;;;;;35.03;18.30;;;;;;;-1.93;71.71;100996.96;1676108;85;21554;-71
2022/03/15 01:57:33;;;;;;;31.93;17.40;;;;;;;-1.91;71.64;100998.11;1679781;85;21471;-72
2022/03/15 02:00:02;;;;;;;43.75;18.85;;;;;;;-1.89;71.57;101000.07;1675338;85;20998;-69
2022/03/15 02:02:29;;;;;;;33.48;16.52;;;;;;;-1.87;71.54;101000.71;1708360;83;21207;-69
2022/03/15 02:04:58;;;;;;;31.60;16.12;;;;;;;-1.87;71.48;101000.20;1682638;84;21084;-71
2022/03/15 02:07:26;;;;;;;34.45;15.65;;;;;;;-1.85;71.43;101002.70;1709489;83;21419;-68
2022/03/15 02:09:56;;;;;;;33.98;17.20;;;;;;;-1.86;71.34;101000.50;1708008;83;20965;-70
2022/03/15 02:12:25;;;;;;;36.20;17.23;;;;;;;-1.85;71.31;100991.89;1710213;83;21048;-72
2022/03/15 02:14:54;;;;;;;33.00;16.85;;;;;;;-1.84;71.36;100997.09;1712149;83;21874;-69
2022/03/15 02:17:21;;;;;;;30.50;15.72;;;;;;;-1.82;71.25;100990.13;1710478;83;20937;-71
2022/03/15 02:19:50;;;;;;;30.37;15.38;;;;;;;-1.82;71.21;100991.48;1710115;83;21146;-71
2022/03/15 02:22:19;;;;;;;32.45;17.20;;;;;;;-1.81;71.27;100990.98;1711211;83;20901;-68
2022/03/15 02:24:46;;;;;;;34.33;15.72;;;;;;;-1.85;70.98;100989.19;1708976;83;21059;-70
2022/03/15 02:27:15;;;;;;;38.05;17.15;;;;;;;-1.85;71.21;100990.03;1711528;83;22060;-70
2022/03/15 02:29:43;;;;;;;29.42;15.38;;;;;;;-1.85;71.31;100987.33;1708499;83;21105;-69
2022/03/15 02:32:11;;;;;;;31.25;14.18;;;;;;;-1.84;71.17;100992.20;1666461;84;20953;-69
2022/03/15 02:34:38;;;;;;;32.05;16.12;;;;;;;-1.82;71.06;100991.48;1673324;85;21080;-70
2022/03/15 02:37:07;;;;;;;31.25;15.25;;;;;;;-1.84;70.90;100986.28;1670875;85;20963;-70
2022/03/15 02:39:35;;;;;;;29.57;14.83;;;;;;;-1.86;70.82;100987.53;1711685;83;21031;-72
2022/03/15 02:42:03;;;;;;;29.80;15.58;;;;;;;-1.87;71.00;100988.55;1713421;83;21037;-69
2022/03/15 02:47:32;;;;;;;32.00;13.90;;;;;;;-1.87;70.93;100977.73;1654903;85;21501;-69
2022/03/15 02:50:01;;;;;;;32.78;15.63;;;;;;;-1.90;70.80;100975.44;1627480;86;20954;-70
2022/03/15 02:52:32;;;;;;;36.38;16.45;;;;;;;-1.93;70.89;100978.05;1654097;85;21522;-69
2022/03/15 02:55:00;;;;;;;34.08;16.50;;;;;;;-1.95;70.90;100974.70;1649459;85;20988;-69
2022/03/15 02:57:28;;;;;;;40.43;16.60;;;;;;;-1.97;71.02;100977.61;1651444;85;20997;-68
2022/03/15 02:59:57;;;;;;;37.75;18.20;;;;;;;-1.98;71.05;100983.22;1653318;85;20973;-68
2022/03/15 03:02:24;;;;;;;34.73;17.40;;;;;;;-1.99;71.23;100983.72;1651925;85;21649;-69
2022/03/15 03:04:52;;;;;;;41.00;18.77;;;;;;;-1.97;71.38;100980.81;1651227;85;21379;-70
2022/03/15 03:07:24;;;;;;;35.13;16.90;;;;;;;-1.98;71.36;100979.97;1651533;85;21068;-69
2022/03/15 03:09:51;;;;;;;41.37;17.42;;;;;;;-1.97;71.51;100974.91;1655330;85;21003;-71
2022/03/15 03:12:19;;;;;;;37.60;17.00;;;;;;;-1.96;71.54;100977.91;1683107;83;21549;-70
2022/03/15 03:14:47;;;;;;;36.85;16.55;;;;;;;-1.93;71.56;100979.40;1711080;83;20998;-69
2022/03/15 03:17:14;;;;;;;34.58;16.67;;;;;;;-1.92;71.51;100976.16;1682458;84;21188;-70
2022/03/15 03:19:44;;;;;;;37.75;18.27;;;;;;;-1.92;71.49;100978.34;1671677;84;21002;-68
2022/03/15 03:22:14;;;;;;;38.35;17.73;;;;;;;-1.92;71.49;100974.80;1705973;83;21021;-69
2022/03/15 03:24:41;;;;;;;35.13;17.73;;;;;;;-1.91;71.55;100971.08;1708396;82;20965;-69
2022/03/15 03:27:13;;;;;;;36.88;17.25;;;;;;;-1.92;71.48;100970.75;1673428;85;21072;-69
2022/03/15 03:29:37;;;;;;;34.63;16.40;;;;;;;-1.94;71.44;100973.66;1708294;83;21073;-70
2022/03/15 03:32:06;;;;;;;48.05;17.52;;;;;;;-1.95;71.44;100976.05;1704762;83;21529;-70
2022/03/15 03:34:34;;;;;;;36.63;15.78;;;;;;;-2.00;71.15;100976.66;1706788;83;21126;-69
2022/03/15 03:37:00;;;;;;;33.90;15.58;;;;;;;-2.05;71.18;100978.28;1710422;83;21077;-69
2022/03/15 03:39:27;;;;;;;34.43;17.05;;;;;;;-2.11;71.06;100979.91;1671578;84;21063;-71
2022/03/15 03:41:56;;;;;;;38.78;18.30;;;;;;;-2.17;71.09;100976.16;1684561;84;21093;-71
2022/03/15 03:44:23;;;;;;;34.53;16.52;;;;;;;-2.20;71.25;100980.58;1710153;83;20946;-70
2022/03/15 03:46:50;;;;;;;39.23;17.17;;;;;;;-2.21;71.49;100982.97;1682536;83;21549;-69
2022/03/15 03:49:17;;;;;;;38.60;16.70;;;;;;;-2.24;71.40;100977.47;1672318;84;21003;-69
2022/03/15 03:51:47;;;;;;;32.17;15.75;;;;;;;-2.28;71.39;100974.83;1708977;83;21398;-68
2022/03/15 03:54:19;;;;;;;43.20;19.15;;;;;;;-2.33;71.46;100977.30;1687095;83;21838;-69
2022/03/15 03:56:46;;;;;;;34.23;17.60;;;;;;;-2.35;71.59;100983.40;1650893;85;21009;-68
2022/03/15 03:59:13;;;;;;;41.83;19.30;;;;;;;-2.39;71.67;100982.95;1679090;84;21014;-71
2022/03/15 04:01:42;;;;;;;39.10;18.40;;;;;;;-2.40;71.82;100982.65;1708980;83;21061;-68
2022/03/15 04:04:10;;;;;;;34.83;16.87;;;;;;;-2.39;72.18;100984.84;1689646;83;21677;-71
2022/03/15 04:06:39;;;;;;;39.85;18.73;;;;;;;-2.36;72.29;100982.59;1679833;84;21132;-70
2022/03/15 04:09:11;;;;;;;41.18;18.32;;;;;;;-2.36;72.12;100984.45;1710718;83;20982;-71
2022/03/15 04:11:41;;;;;;;40.63;19.77;;;;;;;-2.39;72.01;100980.80;1709093;83;21601;-71
2022/03/15 04:14:11;;;;;;;39.95;18.82;;;;;;;-2.42;71.96;100979.30;1709911;83;21523;-68
2022/03/15 04:16:41;;;;;;;41.92;19.73;;;;;;;-2.43;72.08;100976.30;1711032;83;21052;-70
2022/03/15 04:19:09;;;;;;;38.55;18.90;;;;;;;-2.42;72.13;100971.74;1709325;83;21041;-69
2022/03/15 04:21:38;;;;;;;40.52;18.27;;;;;;;-2.46;72.17;100972.65;1680813;85;20966;-69
2022/03/15 04:24:06;;;;;;;35.52;16.27;;;;;;;-2.45;72.36;100971.61;1710480;83;21068;-70
2022/03/15 04:26:33;;;;;;;37.50;17.52;;;;;;;-2.43;72.48;100972.76;1688537;84;21055;-68
2022/03/15 04:29:05;;;;;;;39.50;17.12;;;;;;;-2.43;72.48;100964.15;1677341;84;21006;-71
2022/03/15 04:31:32;;;;;;;37.17;16.17;;;;;;;-2.40;72.61;100968.30;1707504;83;21881;-70
2022/03/15 04:34:01;;;;;;;37.60;16.00;;;;;;;-2.39;72.80;100969.45;1713174;83;20985;-71
2022/03/15 04:36:27;;;;;;;36.40;16.82;;;;;;;-2.37;72.78;100966.59;1708157;83;21072;-71
2022/03/15 04:38:58;;;;;;;31.97;15.23;;;;;;;-2.36;72.70;100968.24;1707746;83;21065;-69
2022/03/15 04:41:27;;;;;;;28.45;14.65;;;;;;;-2.38;72.60;100969.80;1708685;83;21161;-72
2022/03/15 04:43:57;;;;;;;30.37;14.95;;;;;;;-2.40;72.69;100974.55;1708335;83;21178;-71
2022/03/15 04:46:25;;;;;;;31.62;15.23;;;;;;;-2.40;72.76;100972.36;1697629;83;21462;-70
2022/03/15 04:48:55;;;;;;;28.20;13.68;;;;;;;-2.42;72.83;100970.39;1710335;83;21001;-72
2022/03/15 04:51:23;;;;;;;36.10;16.48;;;;;;;-2.43;72.92;100972.25;1711415;83;21017;-70
2022/03/15 04:53:54;;;;;;;31.82;13.95;;;;;;;-2.41;73.18;100972.05;1670926;83;21630;-68
2022/03/15 04:56:21;;;;;;;36.68;16.82;;;;;;;-2.36;73.45;100970.94;1711744;82;21176;-69
2022/03/15 04:58:50;;;;;;;39.15;17.05;;;;;;;-2.28;73.72;100963.19;1708249;83;21746;-70
2022/03/15 05:01:17;;;;;;;32.67;16.10;;;;;;;-2.19;73.86;100964.70;1679474;84;21081;-71
2022/03/15 05:03:46;;;;;;;39.30;16.97;;;;;;;-2.09;73.84;100961.64;1706807;82;20938;-71
2022/03/15 05:06:14;;;;;;;37.45;15.88;;;;;;;-1.99;73.76;100960.75;1680946;84;21053;-70
2022/03/15 05:08:41;;;;;;;34.67;16.70;;;;;;;-1.91;73.59;100947.58;1712589;83;21208;-71
2022/03/15 05:11:10;;;;;;;34.50;16.80;;;;;;;-1.81;73.52;100957.19;1709060;83;21097;-70
2022/03/15 05:13:44;;;;;;;41.37;16.80;;;;;;;-1.74;73.37;100954.00;1680763;85;20969;-71
2022/03/15 05:16:17;;;;;;;36.80;17.13;;;;;;;-1.71;73.14;100959.00;1708293;83;21053;-67
2022/03/15 05:18:54;;;;;;;33.55;17.90;;;;;;;-1.65;73.18;100965.45;1710378;83;20940;-69
2022/03/15 05:21:25;;;;;;;32.33;16.77;;;;;;;-1.60;73.17;100961.62;1669708;84;21217;-69
2022/03/15 05:23:53;;;;;;;31.97;15.80;;;;;;;-1.54;72.95;100962.17;1707970;83;21422;-71
2022/03/15 05:26:20;;;;;;;39.03;17.70;;;;;;;-1.55;72.71;100963.20;1678612;83;21034;-72
2022/03/15 05:28:49;;;;;;;34.80;18.23;;;;;;;-1.52;72.85;100960.08;1711706;83;21539;-71
2022/03/15 05:31:23;;;;;;;40.23;18.65;;;;;;;-1.47;72.91;100959.48;1710410;83;20938;-70
2022/03/15 05:33:52;;;;;;;33.70;16.62;;;;;;;-1.38;73.16;100955.55;1712181;83;21183;-70
2022/03/15 05:36:19;;;;;;;39.88;17.85;;;;;;;-1.25;73.14;100957.97;1709315;83;21032;-73
2022/03/15 05:38:46;;;;;;;39.48;17.42;;;;;;;-1.14;72.99;100957.34;1711105;83;21031;-70
2022/03/15 05:41:14;;;;;;;36.23;18.57;;;;;;;-1.03;72.75;100963.19;1709287;83;21036;-70
2022/03/15 05:43:45;;;;;;;37.40;17.90;;;;;;;-0.95;72.51;100959.44;1676637;84;20973;-70
2022/03/15 05:46:12;;;;;;;36.20;17.60;;;;;;;-0.89;72.26;100962.69;1678632;84;21769;-73
2022/03/15 05:48:41;;;;;;;38.42;17.73;;;;;;;-0.82;72.01;100955.37;1710035;83;21061;-71
2022/03/15 05:51:11;;;;;;;30.75;15.60;;;;;;;-0.78;72.00;100952.58;1712092;83;21001;-71
2022/03/15 05:53:39;;;;;;;41.02;18.20;;;;;;;-0.72;71.51;100950.92;1679943;85;21351;-73
2022/03/15 05:56:09;;;;;;;34.27;17.42;;;;;;;-0.70;71.32;100951.52;1710120;83;21104;-70
2022/03/15 05:58:37;;;;;;;38.10;17.57;;;;;;;-0.65;71.27;100950.91;1712778;83;21138;-66
2022/03/15 06:01:04;;;;;;;37.42;17.75;;;;;;;-0.59;71.45;100951.41;1687278;84;20954;-69
2022/03/15 06:03:31;;;;;;;40.03;17.67;;;;;;;-0.49;71.40;100949.63;1668133;84;21009;-71
2022/03/15 06:05:58;;;;;;;32.85;16.17;;;;;;;-0.38;70.98;100959.00;1676952;85;21293;-70
2022/03/15 06:08:28;;;;;;;42.30;18.62;;;;;;;-0.30;70.71;100953.34;1712441;83;21036;-70
2022/03/15 06:10:56;;;;;;;42.25;17.62;;;;;;;-0.21;70.18;100955.31;1709988;83;21069;-68
2022/03/15 06:13:26;;;;;;;37.65;18.50;;;;;;;-0.14;70.12;100951.23;1704707;83;21002;-69
2022/03/15 06:15:52;;;;;;;40.43;18.73;;;;;;;-0.06;69.71;100955.56;1709833;83;21100;-67
2022/03/15 06:18:19;;;;;;;46.30;18.98;;;;;;;0.01;69.38;100960.97;1708888;83;21541;-71
2022/03/15 06:20:46;;;;;;;33.73;17.57;;;;;;;0.08;69.34;100963.14;1689127;83;21032;-67
2022/03/15 06:23:18;;;;;;;36.88;18.25;;;;;;;0.17;69.16;100956.95;1711187;83;21121;-71
2022/03/15 06:25:42;;;;;;;36.00;18.57;;;;;;;0.27;69.24;100959.20;1710131;83;21055;-69
2022/03/15 06:28:14;;;;;;;36.00;18.57;;;;;;;0.38;69.00;100957.67;1705315;83;21002;-71
2022/03/15 06:30:44;;;;;;;42.70;21.60;;;;;;;0.47;69.06;100956.39;1679693;85;20990;-72
2022/03/15 06:33:14;;;;;;;39.23;20.00;;;;;;;0.61;68.83;100950.38;1677185;85;20951;-71
2022/03/15 06:36:09;;;;;;;41.98;21.35;;;;;;;0.72;68.61;100949.66;1706713;82;21123;-71
2022/03/15 06:38:35;;;;;;;42.05;18.60;;;;;;;0.82;68.52;100945.10;1683583;84;21013;-69
2022/03/15 06:41:03;;;;;;;38.58;19.87;;;;;;;0.94;68.21;100953.37;1710347;83;20929;-70
2022/03/15 06:43:34;;;;;;;56.28;20.68;;;;;;;1.02;67.93;100950.92;1712646;83;20994;-70
2022/03/15 06:46:01;;;;;;;42.20;20.27;;;;;;;1.11;67.57;100941.95;1703128;82;21040;-71
2022/03/15 06:48:32;;;;;;;44.38;20.00;;;;;;;1.23;67.02;100944.78;1708558;83;21399;-67
2022/03/15 06:50:59;;;;;;;39.38;19.50;;;;;;;1.32;66.79;100945.34;1710923;82;21451;-69
2022/03/15 06:53:26;;;;;;;39.78;19.67;;;;;;;1.44;66.63;100940.84;1715757;83;20952;-69
2022/03/15 06:55:53;;;;;;;39.27;20.00;;;;;;;1.52;65.37;100949.77;1714797;82;20946;-72
2022/03/15 06:58:20;;;;;;;37.73;19.62;;;;;;;1.54;64.68;100938.13;1704332;83;20910;-72
2022/03/15 07:00:49;;;;;;;39.70;19.45;;;;;;;1.62;64.15;100942.45;1703244;83;21151;-72
2022/03/15 07:03:17;;;;;;;46.35;19.00;;;;;;;1.67;64.05;100939.34;1710494;83;20954;-70
2022/03/15 07:05:47;;;;;;;41.55;19.98;;;;;;;1.78;64.57;100939.13;1709595;83;21421;-70
2022/03/15 07:08:15;;;;;;;34.25;20.08;;;;;;;1.94;64.62;100934.96;1715434;83;21494;-71
2022/03/15 07:10:43;;;;;;;45.92;21.12;;;;;;;2.12;64.52;100934.66;1703213;83;21018;-72
2022/03/15 07:13:11;;;;;;;39.48;19.30;;;;;;;2.25;63.87;100931.47;1705788;83;21136;-69
2022/03/15 07:15:40;;;;;;;58.95;19.70;;;;;;;2.37;63.49;100923.36;1708368;83;21422;-72
2022/03/15 07:18:07;;;;;;;38.23;19.70;;;;;;;2.41;62.43;100922.66;1708651;83;20925;-70
2022/03/15 07:20:38;;;;;;;42.65;21.23;;;;;;;2.52;62.57;100928.38;1703988;83;20962;-72
2022/03/15 07:23:07;;;;;;;39.90;21.55;;;;;;;2.62;62.22;100926.45;1690083;83;21050;-70
2022/03/15 07:25:35;;;;;;;38.73;20.00;;;;;;;2.72;62.08;100919.92;1714916;83;21145;-69
2022/03/15 07:28:02;;;;;;;37.17;19.30;;;;;;;2.85;61.94;100919.42;1712189;83;21474;-68
2022/03/15 07:30:32;;;;;;;44.15;19.92;;;;;;;2.97;60.53;100918.09;1708687;83;20965;-68
2022/03/15 07:33:01;;;;;;;43.23;20.23;;;;;;;3.02;60.10;100918.21;1708726;83;20938;-71
2022/03/15 07:35:29;;;;;;;33.85;18.45;;;;;;;3.12;60.11;100913.54;1713809;83;21083;-71
2022/03/15 07:37:59;;;;;;;40.17;18.05;;;;;;;3.23;60.33;100915.43;1715046;83;21699;-71
2022/03/15 07:40:27;;;;;;;40.25;19.23;;;;;;;3.32;59.72;100917.27;1708062;83;21142;-71
2022/03/15 07:42:54;;;;;;;46.70;19.35;;;;;;;3.42;59.69;100913.95;1714737;83;21024;-70
2022/03/15 07:45:22;;;;;;;38.20;20.08;;;;;;;3.58;59.85;100919.22;1709155;83;21124;-71
2022/03/15 07:47:49;;;;;;;37.00;19.65;;;;;;;3.73;59.59;100917.36;1715068;83;20941;-69
2022/03/15 07:50:17;;;;;;;42.15;20.97;;;;;;;3.81;57.65;100907.97;1711345;83;21126;-72
2022/03/15 07:52:47;;;;;;;41.85;20.50;;;;;;;3.88;57.99;100911.40;1706596;83;20918;-70
2022/03/15 07:55:15;;;;;;;40.23;20.75;;;;;;;4.01;58.17;100909.45;1679004;85;21066;-70
2022/03/15 07:57:42;;;;;;;40.25;21.07;;;;;;;4.17;58.12;100901.05;1709083;83;21033;-72
2022/03/15 08:00:10;;;;;;;36.70;20.00;;;;;;;4.29;58.09;100907.83;1712001;83;20992;-71
2022/03/15 08:02:40;;;;;;;30.27;16.57;;;;;;;4.42;57.72;100903.95;1710854;83;21740;-73
2022/03/15 08:05:10;;;;;;;38.08;17.42;;;;;;;4.55;57.33;100906.94;1711069;82;21119;-72
2022/03/15 08:07:47;;;;;;;44.33;17.57;;;;;;;4.66;57.14;100906.56;1675304;84;21600;-71
2022/03/15 08:10:14;;;;;;;35.03;17.92;;;;;;;4.78;56.66;100903.77;1709356;83;21525;-70
2022/03/15 08:12:42;;;;;;;30.02;15.68;;;;;;;4.88;56.66;100904.47;1650407;85;21092;-73
2022/03/15 08:15:10;;;;;;;31.50;16.67;;;;;;;4.97;55.81;100907.09;1676722;85;21257;-72
2022/03/15 08:17:46;;;;;;;30.55;15.72;;;;;;;5.02;55.89;100903.61;1652184;85;20899;-73
2022/03/15 08:20:18;;;;;;;33.13;16.48;;;;;;;5.13;55.65;100899.67;1678398;83;20930;-72
2022/03/15 08:22:47;;;;;;;32.63;16.62;;;;;;;5.26;54.90;100899.33;1709571;83;21009;-70
2022/03/15 08:25:16;;;;;;;34.08;15.88;;;;;;;5.34;54.73;100893.44;1708050;83;21130;-70
2022/03/15 08:27:45;;;;;;;26.68;15.00;;;;;;;5.44;54.37;100894.67;1711411;83;22094;-68
2022/03/15 08:30:12;;;;;;;40.15;15.65;;;;;;;5.50;53.53;100884.09;1710026;83;21019;-69
2022/03/15 08:32:39;;;;;;;26.30;14.07;;;;;;;5.57;53.82;100890.20;1710138;83;21004;-72
2022/03/15 08:35:09;;;;;;;25.05;15.03;;;;;;;5.70;53.64;100887.63;1710174;82;21084;-71
2022/03/15 08:37:50;;;;;;;25.88;13.20;;;;;;;5.84;53.79;100881.25;1704341;83;20915;-71
2022/03/15 08:40:18;;;;;;;23.92;12.65;;;;;;;6.01;53.41;100891.29;1692930;83;21878;-71
2022/03/15 08:42:48;;;;;;;20.27;11.70;;;;;;;6.16;51.94;100888.48;1691912;83;21111;-71
2022/03/15 08:45:18;;;;;;;22.93;11.93;;;;;;;6.27;51.48;100883.41;1686981;82;20994;-72
2022/03/15 08:47:45;;;;;;;21.25;11.50;;;;;;;6.41;51.52;100881.63;1706667;83;21451;-69
2022/03/15 08:50:12;;;;;;;22.73;10.70;;;;;;;6.51;50.48;100880.89;1696843;83;21021;-72
2022/03/15 08:52:42;;;;;;;18.55;11.05;;;;;;;6.58;49.01;100885.05;1701003;83;21878;-72
2022/03/15 08:55:21;;;;;;;17.67;10.88;;;;;;;6.69;49.37;100883.78;1696861;83;21038;-72
2022/03/15 08:57:48;;;;;;;24.40;10.95;;;;;;;6.81;47.24;100894.03;1702442;83;20988;-67
2022/03/15 09:00:16;;;;;;;17.48;10.70;;;;;;;6.81;46.74;100886.34;1691448;83;20965;-66
2022/03/15 09:02:44;;;;;;;25.82;11.28;;;;;;;6.79;47.81;100892.09;1679528;85;21069;-71
2022/03/15 09:05:13;;;;;;;15.38;9.35;;;;;;;6.95;48.13;100894.97;1657381;85;21330;-71
2022/03/15 09:07:41;;;;;;;21.45;10.13;;;;;;;7.11;45.66;100894.55;1672281;85;21125;-68
2022/03/15 09:10:11;;;;;;;20.60;11.25;;;;;;;7.12;45.86;100889.34;1699503;83;21088;-71
2022/03/15 09:12:43;;;;;;;18.90;10.43;;;;;;;7.20;45.38;100889.38;1652093;85;21037;-71
2022/03/15 09:15:18;;;;;;;22.42;10.65;;;;;;;7.31;46.44;100890.28;1667496;85;21069;-68
2022/03/15 09:17:48;;;;;;;17.45;10.72;;;;;;;7.51;45.61;100888.20;1699387;83;21132;-71
2022/03/15 09:20:15;;;;;;;23.27;11.70;;;;;;;7.62;43.87;100890.47;1688088;84;21036;-70
2022/03/15 09:22:50;;;;;;;25.55;11.68;;;;;;;7.61;43.29;100892.92;1682789;83;21020;-69
2022/03/15 09:25:17;;;;;;;20.70;10.70;;;;;;;7.60;43.68;100888.53;1711847;83;21010;-72
2022/03/15 09:27:46;;;;;;;17.92;9.90;;;;;;;7.67;43.73;100882.80;1696300;83;21033;-69
2022/03/15 09:30:13;;;;;;;28.95;11.43;;;;;;;7.75;42.83;100877.34;1698702;83;21409;-70
2022/03/15 09:32:43;;;;;;;22.02;11.53;;;;;;;7.88;42.79;100881.53;1698022;83;21454;-72
2022/03/15 09:35:13;;;;;;;21.95;12.78;;;;;;;7.97;42.19;100874.41;1709809;83;21470;-71
2022/03/15 09:37:46;;;;;;;29.55;13.62;;;;;;;8.06;42.02;100871.14;1679697;85;21066;-73
2022/03/15 09:40:12;;;;;;;31.23;13.70;;;;;;;8.16;42.22;100860.19;1711278;83;21050;-72
2022/03/15 09:42:39;;;;;;;26.45;14.33;;;;;;;8.28;41.70;100869.55;1684548;83;21457;-67
2022/03/15 09:45:11;;;;;;;30.77;15.25;;;;;;;8.32;41.27;100867.09;1686959;82;21494;-69
2022/03/15 09:47:41;;;;;;;27.37;15.13;;;;;;;8.38;41.26;100868.73;1684660;84;20921;-73
2022/03/15 09:50:09;;;;;;;31.27;14.78;;;;;;;8.48;40.14;100867.37;1697052;83;21003;-71
2022/03/15 09:52:36;;;;;;;36.80;17.87;;;;;;;8.51;39.62;100861.34;1686423;83;21012;-68
2022/03/15 09:55:08;;;;;;;30.95;15.20;;;;;;;8.50;40.03;100854.20;1704692;83;20957;-70
2022/03/15 09:57:35;;;;;;;29.32;15.05;;;;;;;8.56;39.57;100862.48;1699618;83;20993;-72
2022/03/15 10:00:13;;;;;;;31.45;15.65;;;;;;;8.52;39.22;100856.67;1651695;86;21072;-66
2022/03/15 10:02:43;;;;;;;26.25;13.43;;;;;;;8.46;39.35;100859.16;1669359;85;21071;-71
2022/03/15 10:05:19;;;;;;;21.33;11.30;;;;;;;8.52;39.69;100856.67;1662653;85;21114;-71
2022/03/15 10:07:53;;;;;;;16.42;8.00;;;;;;;8.55;38.99;100855.33;1670169;84;20927;-71
2022/03/15 10:10:23;;;;;;;16.50;8.53;;;;;;;8.59;37.57;100849.57;1707161;83;21018;-72
2022/03/15 10:12:55;;;;;;;16.35;8.98;;;;;;;8.66;38.48;100846.55;1709579;83;21152;-71
2022/03/15 10:15:23;;;;;;;15.95;7.95;;;;;;;8.75;38.67;100842.97;1672155;85;21058;-70
2022/03/15 10:17:56;;;;;;;15.43;9.10;;;;;;;8.88;38.95;100847.64;1670411;85;21066;-72
2022/03/15 10:20:34;;;;;;;18.25;8.93;;;;;;;9.00;38.79;100846.81;1709755;83;20930;-71
2022/03/15 10:22:59;;;;;;;17.67;9.73;;;;;;;9.13;38.93;100850.91;1707882;83;20965;-71
2022/03/15 10:25:27;;;;;;;20.63;11.37;;;;;;;9.23;38.44;100845.94;1709309;83;21174;-72
2022/03/15 10:28:00;;;;;;;19.45;11.78;;;;;;;9.14;37.02;100844.87;1707084;82;20972;-71
2022/03/15 10:30:29;;;;;;;17.27;10.78;;;;;;;9.09;38.13;100837.43;1711041;83;21471;-72
2022/03/15 10:32:55;;;;;;;16.87;10.28;;;;;;;9.17;38.17;100836.05;1709626;83;21802;-72
2022/03/15 10:35:26;;;;;;;25.80;12.00;;;;;;;9.24;37.63;100836.59;1711716;83;21017;-67
2022/03/15 10:37:59;;;;;;;20.43;11.25;;;;;;;9.15;37.24;100828.62;1670034;85;21007;-70
2022/03/15 10:40:41;;;;;;;17.25;11.05;;;;;;;9.12;38.68;100832.77;1670016;84;20967;-71
2022/03/15 10:43:17;;;;;;;19.53;12.33;;;;;;;9.31;38.21;100820.34;1705779;83;21600;-73
2022/03/15 10:45:56;;;;;;;24.02;11.70;;;;;;;9.31;38.21;100820.34;1710694;83;21501;-73
2022/03/15 10:48:24;;;;;;;18.85;10.32;;;;;;;9.43;37.99;100822.78;1709622;83;21448;-70
2022/03/15 10:51:06;;;;;;;19.35;11.65;;;;;;;9.52;37.64;100825.21;1679062;85;21146;-71
2022/03/15 10:53:45;;;;;;;19.00;11.00;;;;;;;9.47;37.77;100823.85;1680338;84;21187;-69
2022/03/15 10:56:19;;;;;;;18.62;11.05;;;;;;;9.50;37.66;100815.86;1663137;85;20967;-71
2022/03/15 10:58:50;;;;;;;21.85;10.93;;;;;;;9.51;37.48;100820.83;1684521;84;21136;-71
2022/03/15 11:01:23;;;;;;;16.82;10.08;;;;;;;9.54;37.36;100818.88;1711031;83;21163;-72
2022/03/15 11:04:03;;;;;;;20.00;10.70;;;;;;;9.57;38.38;100810.05;1677425;85;21562;-68
2022/03/15 11:06:37;;;;;;;21.15;10.85;;;;;;;9.73;37.98;100810.83;1707140;83;21017;-71
2022/03/15 11:09:27;;;;;;;20.37;11.35;;;;;;;9.70;36.42;100804.52;1677838;85;21080;-69
2022/03/15 11:12:06;;;;;;;18.35;9.73;;;;;;;9.68;37.03;100797.09;1668677;85;21175;-68
2022/03/15 11:14:45;;;;;;;17.17;8.33;;;;;;;9.82;36.91;100797.84;1674776;85;21027;-71
2022/03/15 11:17:23;;;;;;;19.42;7.95;;;;;;;9.90;37.24;100793.11;1706484;83;20937;-71
2022/03/15 11:19:56;;;;;;;14.07;7.97;;;;;;;10.07;37.78;100789.14;1710077;83;20996;-71
2022/03/15 11:22:30;;;;;;;13.68;7.22;;;;;;;10.30;37.63;100781.29;1710499;83;20954;-67
2022/03/15 11:25:14;;;;;;;14.05;6.97;;;;;;;10.49;37.72;100778.69;1712202;83;21427;-71
2022/03/15 11:27:44;;;;;;;10.93;6.33;;;;;;;10.69;37.31;100777.69;1709998;83;21478;-69